BVF weather

CLOSED Bui-Dama Airport
Bua, Northern, Fiji

Public forecast

Using degrees Celsius for public forecast. Weather courtesy of forecast.io.

Closest aviation weather report (METAR) to Bui-Dama Airport

Report is more than 6 hours old.

Closest report is Savusavu Airport, 41.4 nm (76.7 km) E. Retrieved 2020/03/03 18:00 UTC (1 month ago):

NFNS 031800Z AUTO 00000KT //// 22/23 Q1007

Closest aviation forecast (TAF) to Bui-Dama Airport

Closest forecast is Nausori International Airport, 71.2 nm (131.8 km) S. Retrieved 2020/04/08 06:00 UTC (3 hours ago):

TAF NFNA 080523Z 0806/0906 31019KT 9999 -RA FEW049 BKN040 OVC100 TEMPO 0806/0810 29030G45KT 3000 +TSRA BKN015 FEW017CB FM081000 25012KT 9999 -SHRA SCT020 BKN100